createdAt,value
2018-01-12T00:00:58.866Z,1013.42
2018-01-12T00:01:58.859Z,1013.45
2018-01-12T00:03:19.857Z,1013.43
2018-01-12T00:03:58.844Z,1013.47
2018-01-12T00:04:58.838Z,1013.49
2018-01-12T00:05:58.829Z,1013.51
2018-01-12T00:06:58.824Z,1013.48
2018-01-12T00:07:58.814Z,1013.52
2018-01-12T00:09:19.816Z,1013.52
2018-01-12T00:09:58.802Z,1013.50
2018-01-12T00:10:58.795Z,1013.50
2018-01-12T00:11:58.788Z,1013.45
2018-01-12T00:12:58.779Z,1013.46
2018-01-12T00:13:58.776Z,1013.47
2018-01-12T00:15:19.776Z,1013.47
2018-01-12T00:15:58.758Z,1013.47
2018-01-12T00:16:58.757Z,1013.45
2018-01-12T00:17:58.751Z,1013.45
2018-01-12T00:18:58.743Z,1013.47
2018-01-12T00:19:58.734Z,1013.46
2018-01-12T00:21:19.732Z,1013.46
2018-01-12T00:21:58.724Z,1013.41
2018-01-12T00:22:58.711Z,1013.43
2018-01-12T00:23:58.709Z,1013.44
2018-01-12T00:24:58.702Z,1013.41
2018-01-12T00:25:58.694Z,1013.43
2018-01-12T00:27:19.695Z,1013.44
2018-01-12T00:27:58.679Z,1013.42
2018-01-12T00:28:58.674Z,1013.42
2018-01-12T00:29:58.668Z,1013.42
2018-01-12T00:30:58.656Z,1013.42
2018-01-12T00:31:58.653Z,1013.40
2018-01-12T00:33:19.651Z,1013.44
2018-01-12T00:33:58.638Z,1013.42
2018-01-12T00:34:58.635Z,1013.36
2018-01-12T00:35:58.623Z,1013.41
2018-01-12T00:36:58.620Z,1013.43
2018-01-12T00:37:58.616Z,1013.40
2018-01-12T00:39:19.608Z,1013.40
2018-01-12T00:39:58.598Z,1013.40
2018-01-12T00:40:58.592Z,1013.41
2018-01-12T00:41:58.584Z,1013.41
2018-01-12T00:42:58.581Z,1013.41
2018-01-12T00:43:58.572Z,1013.41
2018-01-12T00:45:19.570Z,1013.46
2018-01-12T00:45:58.556Z,1013.47
2018-01-12T00:46:58.552Z,1013.44
2018-01-12T00:47:58.545Z,1013.47
2018-01-12T00:48:58.536Z,1013.51
2018-01-12T00:49:58.529Z,1013.47
2018-01-12T00:51:19.526Z,1013.46
2018-01-12T00:51:58.516Z,1013.53
2018-01-12T00:52:58.509Z,1013.53
2018-01-12T00:53:58.505Z,1013.52
2018-01-12T00:54:58.495Z,1013.51
2018-01-12T00:55:58.485Z,1013.56
2018-01-12T00:57:19.488Z,1013.56
2018-01-12T00:57:58.476Z,1013.60
2018-01-12T00:58:58.477Z,1013.62
2018-01-12T00:59:58.462Z,1013.61
2018-01-12T01:00:58.452Z,1013.60
2018-01-12T01:01:58.448Z,1013.62
2018-01-12T01:03:19.446Z,1013.59
2018-01-12T01:03:58.427Z,1013.62
2018-01-12T01:04:58.428Z,1013.64
2018-01-12T01:05:58.416Z,1013.65
2018-01-12T01:06:58.413Z,1013.64
2018-01-12T01:07:58.405Z,1013.66
2018-01-12T01:09:19.405Z,1013.69
2018-01-12T01:09:58.392Z,1013.69
2018-01-12T01:10:58.383Z,1013.71
2018-01-12T01:11:58.377Z,1013.74
2018-01-12T01:12:58.373Z,1013.73
2018-01-12T01:13:58.420Z,1013.74
2018-01-12T01:15:19.364Z,1013.76
2018-01-12T01:15:58.347Z,1013.79
2018-01-12T01:16:58.344Z,1013.81
2018-01-12T01:17:58.338Z,1013.78
2018-01-12T01:18:58.333Z,1013.80
2018-01-12T01:19:58.324Z,1013.83
2018-01-12T01:21:19.321Z,1013.79
2018-01-12T01:21:58.318Z,1013.80
2018-01-12T01:22:58.357Z,1013.81
2018-01-12T01:23:58.297Z,1013.77
2018-01-12T01:24:58.293Z,1013.83
2018-01-12T01:25:58.287Z,1013.84
2018-01-12T01:27:19.283Z,1013.82
2018-01-12T01:27:58.267Z,1013.84
2018-01-12T01:28:58.294Z,1013.82
2018-01-12T01:29:58.260Z,1013.84
2018-01-12T01:30:58.248Z,1013.85
2018-01-12T01:31:58.242Z,1013.85
2018-01-12T01:33:19.242Z,1013.83
2018-01-12T01:33:58.230Z,1013.85
2018-01-12T01:34:58.220Z,1013.87
2018-01-12T01:35:58.215Z,1013.85
2018-01-12T01:36:58.212Z,1013.90
2018-01-12T01:37:58.202Z,1013.90
2018-01-12T01:39:19.200Z,1013.95
2018-01-12T01:39:58.188Z,1013.97
2018-01-12T01:40:58.178Z,1013.95
2018-01-12T01:41:58.174Z,1014.00
2018-01-12T01:42:58.167Z,1013.98
2018-01-12T01:43:58.161Z,1013.97
2018-01-12T01:45:19.157Z,1013.99
2018-01-12T01:45:58.148Z,1014.01
2018-01-12T01:46:58.142Z,1014.05
2018-01-12T01:47:58.135Z,1014.01
2018-01-12T01:48:58.126Z,1014.03
2018-01-12T01:49:58.124Z,1014.06
2018-01-12T01:51:19.120Z,1014.04
2018-01-12T01:51:58.106Z,1014.04
2018-01-12T01:52:58.109Z,1014.07
2018-01-12T01:53:58.093Z,1014.06
2018-01-12T01:54:58.094Z,1014.08
2018-01-12T01:55:58.094Z,1014.06
2018-01-12T01:57:19.079Z,1014.06
2018-01-12T01:57:58.067Z,1014.07
2018-01-12T01:58:58.067Z,1014.10
2018-01-12T01:59:58.065Z,1014.10
2018-01-12T02:00:58.044Z,1014.09
2018-01-12T02:01:58.038Z,1014.08
2018-01-12T02:03:19.041Z,1014.11
2018-01-12T02:03:58.024Z,1014.12
2018-01-12T02:04:58.017Z,1014.10
2018-01-12T02:05:58.014Z,1014.12
2018-01-12T02:06:58.005Z,1014.11
2018-01-12T02:07:57.996Z,1014.09
2018-01-12T02:09:18.994Z,1014.11
2018-01-12T02:09:57.984Z,1014.13
2018-01-12T02:10:57.983Z,1014.12
2018-01-12T02:11:57.970Z,1014.11
2018-01-12T02:12:57.962Z,1014.11
2018-01-12T02:13:57.957Z,1014.09
2018-01-12T02:15:18.956Z,1014.09
2018-01-12T02:15:57.947Z,1014.14
2018-01-12T02:16:57.934Z,1014.08
2018-01-12T02:17:57.929Z,1014.10
2018-01-12T02:18:57.921Z,1014.12
2018-01-12T02:19:57.914Z,1014.10
2018-01-12T02:21:18.915Z,1014.09
2018-01-12T02:21:57.902Z,1014.11
2018-01-12T02:22:57.894Z,1014.09
2018-01-12T02:23:57.887Z,1014.11
2018-01-12T02:24:57.881Z,1014.14
2018-01-12T02:25:57.873Z,1014.10
2018-01-12T02:27:18.875Z,1014.09
2018-01-12T02:27:57.859Z,1014.07
2018-01-12T02:28:57.876Z,1014.08
2018-01-12T02:29:57.846Z,1014.11
2018-01-12T02:30:57.843Z,1014.09
2018-01-12T02:31:57.833Z,1014.11
2018-01-12T02:33:18.835Z,1014.13
2018-01-12T02:33:57.818Z,1014.09
2018-01-12T02:34:57.813Z,1014.15
2018-01-12T02:35:57.803Z,1014.12
2018-01-12T02:36:57.800Z,1014.15
2018-01-12T02:37:57.798Z,1014.14
2018-01-12T02:39:18.793Z,1014.15
2018-01-12T02:39:57.778Z,1014.14
2018-01-12T02:40:57.771Z,1014.17
2018-01-12T02:41:57.764Z,1014.16
2018-01-12T02:42:57.759Z,1014.15
2018-01-12T02:43:57.752Z,1014.11
2018-01-12T02:45:18.752Z,1014.16
2018-01-12T02:45:57.738Z,1014.15
2018-01-12T02:46:57.732Z,1014.13
2018-01-12T02:47:57.723Z,1014.15
2018-01-12T02:48:57.719Z,1014.18
2018-01-12T02:49:57.708Z,1014.15
2018-01-12T02:51:18.714Z,1014.19
2018-01-12T02:51:57.697Z,1014.20
2018-01-12T02:52:57.686Z,1014.19
2018-01-12T02:53:57.683Z,1014.19
2018-01-12T02:54:57.679Z,1014.20
2018-01-12T02:55:57.669Z,1014.19
2018-01-12T02:57:18.669Z,1014.21
2018-01-12T02:57:57.656Z,1014.17
2018-01-12T02:58:57.650Z,1014.14
2018-01-12T02:59:57.640Z,1014.15
2018-01-12T03:00:57.639Z,1014.15
2018-01-12T03:01:57.629Z,1014.14
2018-01-12T03:03:18.636Z,1014.11
2018-01-12T03:03:57.628Z,1014.12
2018-01-12T03:04:57.609Z,1014.18
2018-01-12T03:05:57.602Z,1014.16
2018-01-12T03:06:57.595Z,1014.21
2018-01-12T03:07:57.587Z,1014.23
2018-01-12T03:09:18.590Z,1014.27
2018-01-12T03:09:57.575Z,1014.27
2018-01-12T03:10:57.568Z,1014.30
2018-01-12T03:11:57.561Z,1014.31
2018-01-12T03:12:58.449Z,1014.34
2018-01-12T03:13:57.554Z,1014.33
2018-01-12T03:15:18.548Z,1014.39
2018-01-12T03:15:57.530Z,1014.38
2018-01-12T03:16:57.522Z,1014.40
2018-01-12T03:17:57.519Z,1014.41
2018-01-12T03:18:57.513Z,1014.40
2018-01-12T03:19:57.507Z,1014.40
2018-01-12T03:21:18.504Z,1014.36
2018-01-12T03:21:57.489Z,1014.39
2018-01-12T03:22:57.484Z,1014.36
2018-01-12T03:23:57.478Z,1014.42
2018-01-12T03:24:57.472Z,1014.45
2018-01-12T03:25:57.464Z,1014.44
2018-01-12T03:27:18.462Z,1014.41
2018-01-12T03:27:57.450Z,1014.40
2018-01-12T03:28:57.455Z,1014.46
2018-01-12T03:29:57.439Z,1014.46
2018-01-12T03:30:57.439Z,1014.48
2018-01-12T03:31:57.432Z,1014.47
2018-01-12T03:33:18.425Z,1014.49
2018-01-12T03:33:57.420Z,1014.47
2018-01-12T03:34:57.404Z,1014.48
2018-01-12T03:35:57.395Z,1014.51
2018-01-12T03:36:57.389Z,1014.52
2018-01-12T03:37:57.384Z,1014.51
2018-01-12T03:39:18.383Z,1014.48
2018-01-12T03:39:57.371Z,1014.47
2018-01-12T03:40:57.362Z,1014.48
2018-01-12T03:41:57.356Z,1014.49
2018-01-12T03:42:57.350Z,1014.48
2018-01-12T03:43:57.345Z,1014.49
2018-01-12T03:45:18.341Z,1014.43
2018-01-12T03:45:57.333Z,1014.45
2018-01-12T03:46:57.317Z,1014.46
2018-01-12T03:47:57.321Z,1014.45
2018-01-12T03:48:57.309Z,1014.47
2018-01-12T03:49:57.323Z,1014.43
2018-01-12T03:51:18.299Z,1014.45
2018-01-12T03:51:57.288Z,1014.44
2018-01-12T03:52:57.314Z,1014.49
2018-01-12T03:53:57.297Z,1014.45
2018-01-12T03:54:57.300Z,1014.44
2018-01-12T03:55:57.260Z,1014.45
2018-01-12T03:57:18.258Z,1014.44
2018-01-12T03:57:57.248Z,1014.47
2018-01-12T03:58:57.244Z,1014.45
2018-01-12T03:59:57.231Z,1014.44
2018-01-12T04:00:57.227Z,1014.45
2018-01-12T04:01:57.219Z,1014.47
2018-01-12T04:03:18.222Z,1014.50
2018-01-12T04:03:57.200Z,1014.53
2018-01-12T04:04:57.213Z,1014.54
2018-01-12T04:05:57.193Z,1014.56
2018-01-12T04:06:57.192Z,1014.54
2018-01-12T04:07:57.174Z,1014.54
2018-01-12T04:09:18.176Z,1014.56
2018-01-12T04:09:57.163Z,1014.57
2018-01-12T04:10:57.158Z,1014.57
2018-01-12T04:11:57.149Z,1014.62
2018-01-12T04:12:57.144Z,1014.62
2018-01-12T04:13:57.137Z,1014.63
2018-01-12T04:15:18.136Z,1014.62
2018-01-12T04:15:57.119Z,1014.63
2018-01-12T04:16:57.114Z,1014.58
2018-01-12T04:17:57.108Z,1014.63
2018-01-12T04:18:57.099Z,1014.58
2018-01-12T04:19:57.097Z,1014.61
2018-01-12T04:21:18.096Z,1014.59
2018-01-12T04:21:57.081Z,1014.59
2018-01-12T04:22:57.072Z,1014.66
2018-01-12T04:23:57.067Z,1014.60
2018-01-12T04:24:57.061Z,1014.64
2018-01-12T04:25:57.053Z,1014.63
2018-01-12T04:27:18.052Z,1014.63
2018-01-12T04:27:57.039Z,1014.66
2018-01-12T04:28:57.032Z,1014.67
2018-01-12T04:29:57.043Z,1014.68
2018-01-12T04:30:57.019Z,1014.66
2018-01-12T04:31:57.011Z,1014.66
2018-01-12T04:33:18.012Z,1014.70
2018-01-12T04:33:56.997Z,1014.72
2018-01-12T04:34:56.989Z,1014.69
2018-01-12T04:35:56.982Z,1014.71
2018-01-12T04:36:56.976Z,1014.70
2018-01-12T04:37:56.970Z,1014.71
2018-01-12T04:39:17.970Z,1014.70
2018-01-12T04:39:56.956Z,1014.73
2018-01-12T04:40:56.951Z,1014.76
2018-01-12T04:41:56.941Z,1014.75
2018-01-12T04:42:56.934Z,1014.73
2018-01-12T04:43:56.926Z,1014.74
2018-01-12T04:45:17.927Z,1014.77
2018-01-12T04:45:56.911Z,1014.75
2018-01-12T04:46:56.917Z,1014.74
2018-01-12T04:47:56.903Z,1014.74
2018-01-12T04:48:56.891Z,1014.70
2018-01-12T04:49:56.887Z,1014.71
2018-01-12T04:51:17.885Z,1014.72
2018-01-12T04:51:56.872Z,1014.74
2018-01-12T04:52:56.867Z,1014.75
2018-01-12T04:53:56.859Z,1014.77
2018-01-12T04:54:56.851Z,1014.75
2018-01-12T04:55:56.845Z,1014.77
2018-01-12T04:57:17.846Z,1014.78
2018-01-12T04:57:56.834Z,1014.74
2018-01-12T04:58:56.825Z,1014.74
2018-01-12T04:59:56.819Z,1014.78
2018-01-12T05:00:56.811Z,1014.80
2018-01-12T05:01:56.803Z,1014.78
2018-01-12T05:03:17.804Z,1014.76
2018-01-12T05:03:56.798Z,1014.82
2018-01-12T05:04:56.788Z,1014.82
2018-01-12T05:05:56.775Z,1014.80
2018-01-12T05:06:56.770Z,1014.81
2018-01-12T05:07:56.762Z,1014.83
2018-01-12T05:09:17.763Z,1014.85
2018-01-12T05:09:56.757Z,1014.84
2018-01-12T05:10:56.742Z,1014.84
2018-01-12T05:11:56.733Z,1014.88
2018-01-12T05:12:56.728Z,1014.92
2018-01-12T05:13:56.725Z,1014.88
2018-01-12T05:15:17.725Z,1014.91
2018-01-12T05:15:56.706Z,1014.90
2018-01-12T05:16:56.699Z,1014.88
2018-01-12T05:17:56.692Z,1014.89
2018-01-12T05:18:56.684Z,1014.91
2018-01-12T05:19:56.679Z,1014.91
2018-01-12T05:21:17.680Z,1014.90
2018-01-12T05:21:56.717Z,1014.89
2018-01-12T05:22:56.657Z,1014.93
2018-01-12T05:23:56.649Z,1014.96
2018-01-12T05:24:56.646Z,1014.92
2018-01-12T05:25:56.636Z,1014.91
2018-01-12T05:27:17.636Z,1014.97
2018-01-12T05:27:56.621Z,1014.95
2018-01-12T05:28:56.614Z,1014.95
2018-01-12T05:29:56.608Z,1014.99
2018-01-12T05:30:56.598Z,1015.00
2018-01-12T05:31:56.594Z,1014.98
2018-01-12T05:33:17.591Z,1015.01
2018-01-12T05:33:56.581Z,1015.02
2018-01-12T05:34:56.577Z,1015.01
2018-01-12T05:35:56.565Z,1015.03
2018-01-12T05:36:56.558Z,1015.03
2018-01-12T05:37:56.553Z,1015.06
2018-01-12T05:39:17.552Z,1015.03
2018-01-12T05:39:56.535Z,1015.04
2018-01-12T05:40:56.534Z,1015.03
2018-01-12T05:41:56.524Z,1015.04
2018-01-12T05:42:56.521Z,1015.05
2018-01-12T05:43:56.510Z,1015.04
2018-01-12T05:45:17.543Z,1015.05
2018-01-12T05:45:56.495Z,1015.05
2018-01-12T05:46:56.489Z,1015.04
2018-01-12T05:47:56.480Z,1015.08
2018-01-12T05:48:56.478Z,1015.08
2018-01-12T05:49:56.466Z,1015.04
2018-01-12T05:51:17.466Z,1015.06
2018-01-12T05:51:56.458Z,1015.07
2018-01-12T05:52:56.445Z,1015.06
2018-01-12T05:53:56.438Z,1015.06
2018-01-12T05:54:56.432Z,1015.05
2018-01-12T05:55:56.421Z,1015.07
2018-01-12T05:57:17.424Z,1015.05
2018-01-12T05:57:56.411Z,1015.09
2018-01-12T05:58:56.404Z,1015.06
2018-01-12T05:59:56.395Z,1015.08
2018-01-12T06:00:56.394Z,1015.09
2018-01-12T06:01:56.382Z,1015.08
2018-01-12T06:03:17.385Z,1015.09
2018-01-12T06:03:56.367Z,1015.13
2018-01-12T06:04:56.359Z,1015.13
2018-01-12T06:05:56.355Z,1015.15
2018-01-12T06:06:56.989Z,1015.14
2018-01-12T06:07:56.338Z,1015.16
2018-01-12T06:09:17.338Z,1015.18
2018-01-12T06:09:56.326Z,1015.16
2018-01-12T06:10:56.319Z,1015.19
2018-01-12T06:11:56.992Z,1015.19
2018-01-12T06:12:56.303Z,1015.18
2018-01-12T06:13:56.292Z,1015.20
2018-01-12T06:15:17.296Z,1015.23
2018-01-12T06:15:56.282Z,1015.28
2018-01-12T06:16:56.277Z,1015.27
2018-01-12T06:17:56.269Z,1015.29
2018-01-12T06:18:56.263Z,1015.31
2018-01-12T06:19:56.255Z,1015.29
2018-01-12T06:21:17.253Z,1015.30
2018-01-12T06:21:56.240Z,1015.32
2018-01-12T06:22:56.232Z,1015.33
2018-01-12T06:23:56.226Z,1015.34
2018-01-12T06:24:56.225Z,1015.33
2018-01-12T06:25:56.212Z,1015.35
2018-01-12T06:27:17.210Z,1015.33
2018-01-12T06:27:56.195Z,1015.36
2018-01-12T06:28:56.189Z,1015.34
2018-01-12T06:29:56.184Z,1015.38
2018-01-12T06:30:56.181Z,1015.38
2018-01-12T06:31:56.172Z,1015.37
2018-01-12T06:33:17.170Z,1015.40
2018-01-12T06:33:56.157Z,1015.43
2018-01-12T06:34:56.150Z,1015.43
2018-01-12T06:35:56.141Z,1015.40
2018-01-12T06:36:56.133Z,1015.40
2018-01-12T06:37:56.123Z,1015.40
2018-01-12T06:39:17.124Z,1015.41
2018-01-12T06:39:56.112Z,1015.43
2018-01-12T06:40:56.105Z,1015.43
2018-01-12T06:41:56.095Z,1015.44
2018-01-12T06:42:56.091Z,1015.44
2018-01-12T06:43:56.084Z,1015.45
2018-01-12T06:45:17.080Z,1015.44
2018-01-12T06:45:56.070Z,1015.46
2018-01-12T06:46:56.059Z,1015.45
2018-01-12T06:47:56.051Z,1015.46
2018-01-12T06:48:56.050Z,1015.49
2018-01-12T06:49:56.041Z,1015.54
2018-01-12T06:51:17.039Z,1015.50
2018-01-12T06:51:56.026Z,1015.52
2018-01-12T06:52:56.018Z,1015.56
2018-01-12T06:53:56.017Z,1015.59
2018-01-12T06:54:56.005Z,1015.57
2018-01-12T06:55:55.998Z,1015.58
2018-01-12T06:57:16.994Z,1015.60
2018-01-12T06:57:55.985Z,1015.58
2018-01-12T06:58:55.982Z,1015.59
2018-01-12T06:59:55.967Z,1015.59
2018-01-12T07:00:55.960Z,1015.64
2018-01-12T07:01:55.952Z,1015.67
2018-01-12T07:03:16.953Z,1015.69
2018-01-12T07:03:55.940Z,1015.71
2018-01-12T07:04:55.935Z,1015.71
2018-01-12T07:05:55.929Z,1015.72
2018-01-12T07:06:55.918Z,1015.75
2018-01-12T07:07:55.911Z,1015.73
2018-01-12T07:09:16.909Z,1015.76
2018-01-12T07:09:55.896Z,1015.81
2018-01-12T07:10:55.888Z,1015.79
2018-01-12T07:11:55.879Z,1015.82
2018-01-12T07:12:55.874Z,1015.82
2018-01-12T07:13:55.868Z,1015.83
2018-01-12T07:15:16.873Z,1015.88
2018-01-12T07:15:55.854Z,1015.86
2018-01-12T07:16:55.848Z,1015.88
2018-01-12T07:17:55.839Z,1015.92
2018-01-12T07:18:55.841Z,1015.90
2018-01-12T07:19:55.825Z,1015.90
2018-01-12T07:21:16.823Z,1015.98
2018-01-12T07:21:55.812Z,1015.91
2018-01-12T07:22:55.804Z,1015.92
2018-01-12T07:23:55.796Z,1015.93
2018-01-12T07:24:55.792Z,1015.92
2018-01-12T07:25:55.785Z,1015.92
2018-01-12T07:27:16.782Z,1015.95
2018-01-12T07:27:55.813Z,1015.94
2018-01-12T07:28:55.759Z,1015.98
2018-01-12T07:29:55.757Z,1016.03
2018-01-12T07:30:55.747Z,1015.96
2018-01-12T07:31:55.738Z,1015.95
2018-01-12T07:33:16.738Z,1015.97
2018-01-12T07:33:55.725Z,1016.04
2018-01-12T07:34:55.720Z,1015.96
2018-01-12T07:35:55.712Z,1016.00
2018-01-12T07:36:55.703Z,1016.03
2018-01-12T07:37:55.697Z,1016.01
2018-01-12T07:39:16.695Z,1016.01
2018-01-12T07:39:55.684Z,1016.01
2018-01-12T07:40:55.677Z,1016.01
2018-01-12T07:41:55.671Z,1016.01
2018-01-12T07:42:55.663Z,1016.05
2018-01-12T07:43:55.653Z,1016.05
2018-01-12T07:45:16.653Z,1016.08
2018-01-12T07:45:55.643Z,1016.04
2018-01-12T07:46:55.636Z,1016.01
2018-01-12T07:47:55.635Z,1016.02
2018-01-12T07:48:55.627Z,1016.02
2018-01-12T07:49:55.612Z,1016.02
2018-01-12T07:51:16.614Z,1016.03
2018-01-12T07:51:55.598Z,1016.04
2018-01-12T07:52:55.594Z,1016.07
2018-01-12T07:53:55.586Z,1016.05
2018-01-12T07:54:55.581Z,1016.08
2018-01-12T07:55:55.569Z,1016.08
2018-01-12T07:57:16.569Z,1016.05
2018-01-12T07:57:55.556Z,1016.03
2018-01-12T07:58:55.548Z,1016.07
2018-01-12T07:59:55.544Z,1016.05
2018-01-12T08:00:55.533Z,1016.10
2018-01-12T08:01:55.528Z,1016.14
2018-01-12T08:03:16.528Z,1016.13
2018-01-12T08:03:55.512Z,1016.16
2018-01-12T08:04:55.510Z,1016.17
2018-01-12T08:05:55.498Z,1016.16
2018-01-12T08:06:55.496Z,1016.15
2018-01-12T08:07:55.485Z,1016.22
2018-01-12T08:09:16.483Z,1016.20
2018-01-12T08:09:55.469Z,1016.24
2018-01-12T08:10:55.474Z,1016.25
2018-01-12T08:11:55.458Z,1016.28
2018-01-12T08:12:55.451Z,1016.26
2018-01-12T08:13:55.445Z,1016.32
2018-01-12T08:15:16.444Z,1016.33
2018-01-12T08:15:55.429Z,1016.35
2018-01-12T08:16:55.427Z,1016.34
2018-01-12T08:17:55.419Z,1016.34
2018-01-12T08:18:55.410Z,1016.36
2018-01-12T08:19:55.405Z,1016.37
2018-01-12T08:21:16.406Z,1016.40
2018-01-12T08:21:55.396Z,1016.35
2018-01-12T08:22:55.382Z,1016.41
2018-01-12T08:23:55.373Z,1016.37
2018-01-12T08:24:55.367Z,1016.42
2018-01-12T08:25:55.361Z,1016.42
2018-01-12T08:27:16.363Z,1016.44
2018-01-12T08:27:55.346Z,1016.46
2018-01-12T08:28:55.338Z,1016.44
2018-01-12T08:29:55.333Z,1016.43
2018-01-12T08:30:55.327Z,1016.46
2018-01-12T08:31:55.318Z,1016.45
2018-01-12T08:33:16.317Z,1016.47
2018-01-12T08:33:55.305Z,1016.46
2018-01-12T08:34:55.299Z,1016.49
2018-01-12T08:35:55.306Z,1016.47
2018-01-12T08:36:55.284Z,1016.47
2018-01-12T08:37:55.279Z,1016.43
2018-01-12T08:39:16.284Z,1016.48
2018-01-12T08:39:55.266Z,1016.45
2018-01-12T08:40:55.260Z,1016.47
2018-01-12T08:41:55.250Z,1016.48
2018-01-12T08:42:55.240Z,1016.47
2018-01-12T08:43:55.235Z,1016.46
2018-01-12T08:45:16.237Z,1016.45
2018-01-12T08:45:55.225Z,1016.46
2018-01-12T08:46:55.215Z,1016.46
2018-01-12T08:47:55.210Z,1016.44
2018-01-12T08:48:55.203Z,1016.48
2018-01-12T08:49:55.202Z,1016.46
2018-01-12T08:51:16.194Z,1016.48
2018-01-12T08:51:55.181Z,1016.52
2018-01-12T08:52:55.177Z,1016.56
2018-01-12T08:53:55.169Z,1016.50
2018-01-12T08:54:55.158Z,1016.58
2018-01-12T08:55:55.155Z,1016.55
2018-01-12T08:57:16.154Z,1016.62
2018-01-12T08:57:55.141Z,1016.60
2018-01-12T08:58:55.132Z,1016.61
2018-01-12T08:59:55.185Z,1016.62
2018-01-12T09:00:55.117Z,1016.61
2018-01-12T09:01:55.114Z,1016.60
2018-01-12T09:03:16.116Z,1016.62
2018-01-12T09:03:55.100Z,1016.63
2018-01-12T09:04:55.093Z,1016.69
2018-01-12T09:05:55.083Z,1016.67
2018-01-12T09:06:55.078Z,1016.67
2018-01-12T09:07:55.071Z,1016.71
2018-01-12T09:09:16.071Z,1016.74
2018-01-12T09:09:55.058Z,1016.76
2018-01-12T09:10:55.053Z,1016.75
2018-01-12T09:11:55.042Z,1016.76
2018-01-12T09:12:55.036Z,1016.78
2018-01-12T09:13:55.033Z,1016.76
2018-01-12T09:15:16.031Z,1016.81
2018-01-12T09:15:55.014Z,1016.77
2018-01-12T09:16:55.013Z,1016.82
2018-01-12T09:17:55.003Z,1016.81
2018-01-12T09:18:54.999Z,1016.78
2018-01-12T09:19:54.989Z,1016.79
2018-01-12T09:21:15.997Z,1016.80
2018-01-12T09:21:54.974Z,1016.85
2018-01-12T09:22:54.971Z,1016.87
2018-01-12T09:23:54.966Z,1016.87
2018-01-12T09:24:54.957Z,1016.84
2018-01-12T09:25:54.949Z,1016.90
2018-01-12T09:27:15.949Z,1016.92
2018-01-12T09:27:54.933Z,1016.91
2018-01-12T09:28:54.931Z,1016.91
2018-01-12T09:29:54.925Z,1016.92
2018-01-12T09:30:54.915Z,1016.96
2018-01-12T09:31:54.908Z,1017.01
2018-01-12T09:33:15.912Z,1017.02
2018-01-12T09:33:54.895Z,1017.00
2018-01-12T09:34:54.895Z,1016.98
2018-01-12T09:35:54.881Z,1017.01
2018-01-12T09:36:54.876Z,1017.01
2018-01-12T09:37:54.871Z,1016.96
2018-01-12T09:39:15.871Z,1017.00
2018-01-12T09:39:54.855Z,1017.01
2018-01-12T09:40:54.849Z,1017.00
2018-01-12T09:41:54.842Z,1017.03
2018-01-12T09:42:54.837Z,1017.06
2018-01-12T09:43:54.831Z,1017.06
2018-01-12T09:45:15.829Z,1017.06
2018-01-12T09:45:54.814Z,1017.09
2018-01-12T09:46:54.805Z,1017.09
2018-01-12T09:47:54.820Z,1017.07
2018-01-12T09:48:54.798Z,1017.11
2018-01-12T09:49:54.797Z,1017.08
2018-01-12T09:51:15.795Z,1017.06
2018-01-12T09:51:54.777Z,1017.08
2018-01-12T09:52:54.766Z,1017.10
2018-01-12T09:53:54.764Z,1017.12
2018-01-12T09:54:54.757Z,1017.06
2018-01-12T09:55:54.747Z,1017.09
2018-01-12T09:57:15.752Z,1017.08
2018-01-12T09:57:54.737Z,1017.12
2018-01-12T09:58:54.733Z,1017.12
2018-01-12T09:59:54.724Z,1017.12
2018-01-12T10:00:54.717Z,1017.17
2018-01-12T10:01:54.712Z,1017.15
2018-01-12T10:03:15.711Z,1017.23
2018-01-12T10:03:54.700Z,1017.18
2018-01-12T10:04:54.694Z,1017.22
2018-01-12T10:05:54.686Z,1017.19
2018-01-12T10:06:54.676Z,1017.18
2018-01-12T10:07:54.672Z,1017.20
2018-01-12T10:09:15.670Z,1017.19
2018-01-12T10:09:54.660Z,1017.14
2018-01-12T10:10:54.657Z,1017.15
2018-01-12T10:11:54.646Z,1017.10
2018-01-12T10:12:54.639Z,1017.15
2018-01-12T10:13:54.688Z,1017.10
2018-01-12T10:15:15.634Z,1017.14
2018-01-12T10:15:54.623Z,1017.18
2018-01-12T10:16:54.614Z,1017.18
2018-01-12T10:17:54.607Z,1017.20
2018-01-12T10:18:54.607Z,1017.15
2018-01-12T10:19:54.595Z,1017.17
2018-01-12T10:21:15.594Z,1017.18
2018-01-12T10:21:54.580Z,1017.18
2018-01-12T10:22:54.577Z,1017.17
2018-01-12T10:23:54.614Z,1017.16
2018-01-12T10:24:54.565Z,1017.17
2018-01-12T10:25:54.555Z,1017.14
2018-01-12T10:27:15.557Z,1017.22
2018-01-12T10:27:54.541Z,1017.21
2018-01-12T10:28:54.539Z,1017.25
2018-01-12T10:29:54.534Z,1017.24
2018-01-12T10:30:54.527Z,1017.26
2018-01-12T10:31:54.517Z,1017.23
2018-01-12T10:33:15.514Z,1017.28
2018-01-12T10:33:54.506Z,1017.25
2018-01-12T10:34:54.499Z,1017.26
2018-01-12T10:35:54.491Z,1017.25
2018-01-12T10:36:54.485Z,1017.27
2018-01-12T10:37:54.481Z,1017.30
2018-01-12T10:39:15.485Z,1017.26
2018-01-12T10:39:54.464Z,1017.27
2018-01-12T10:40:54.458Z,1017.26
2018-01-12T10:41:54.456Z,1017.29
2018-01-12T10:42:54.446Z,1017.28
2018-01-12T10:43:54.445Z,1017.24
2018-01-12T10:45:15.440Z,1017.25
2018-01-12T10:45:54.425Z,1017.24
2018-01-12T10:46:54.421Z,1017.27
2018-01-12T10:47:54.409Z,1017.27
2018-01-12T10:48:54.409Z,1017.25
2018-01-12T10:49:54.400Z,1017.23
2018-01-12T10:51:15.404Z,1017.21
2018-01-12T10:51:54.388Z,1017.27
2018-01-12T10:52:54.381Z,1017.24
2018-01-12T10:53:54.375Z,1017.25
2018-01-12T10:54:54.386Z,1017.24
2018-01-12T10:55:54.361Z,1017.24
2018-01-12T10:57:15.361Z,1017.22
2018-01-12T10:57:54.347Z,1017.23
2018-01-12T10:58:54.373Z,1017.21
2018-01-12T10:59:54.334Z,1017.20
2018-01-12T11:00:54.333Z,1017.20
2018-01-12T11:01:54.322Z,1017.23
2018-01-12T11:03:15.323Z,1017.18
2018-01-12T11:03:54.308Z,1017.20
2018-01-12T11:04:54.306Z,1017.21
2018-01-12T11:05:54.298Z,1017.20
2018-01-12T11:06:54.292Z,1017.19
2018-01-12T11:07:54.286Z,1017.16
2018-01-12T11:09:15.285Z,1017.19
2018-01-12T11:09:54.271Z,1017.17
2018-01-12T11:10:54.266Z,1017.15
2018-01-12T11:11:54.258Z,1017.20
2018-01-12T11:12:54.252Z,1017.18
2018-01-12T11:13:54.248Z,1017.20
2018-01-12T11:15:15.246Z,1017.19
2018-01-12T11:15:54.234Z,1017.16
2018-01-12T11:16:54.230Z,1017.19
2018-01-12T11:17:54.221Z,1017.19
2018-01-12T11:18:54.216Z,1017.20
2018-01-12T11:19:54.211Z,1017.14
2018-01-12T11:21:15.209Z,1017.17
2018-01-12T11:21:54.198Z,1017.14
2018-01-12T11:22:54.197Z,1017.13
2018-01-12T11:23:54.184Z,1017.16
2018-01-12T11:24:54.181Z,1017.17
2018-01-12T11:25:54.172Z,1017.18
2018-01-12T11:27:15.171Z,1017.16
2018-01-12T11:27:54.156Z,1017.15
2018-01-12T11:28:54.151Z,1017.13
2018-01-12T11:29:54.147Z,1017.10
2018-01-12T11:30:54.140Z,1017.12
2018-01-12T11:31:54.135Z,1017.11
2018-01-12T11:33:15.134Z,1017.15
2018-01-12T11:33:54.128Z,1017.09
2018-01-12T11:34:54.115Z,1017.03
2018-01-12T11:35:54.107Z,1017.08
2018-01-12T11:36:54.106Z,1017.01
2018-01-12T11:37:54.096Z,1017.04
2018-01-12T11:39:15.093Z,1016.98
2018-01-12T11:39:54.080Z,1017.00
2018-01-12T11:40:54.078Z,1017.00
2018-01-12T11:41:54.073Z,1017.00
2018-01-12T11:42:54.065Z,1016.99
2018-01-12T11:43:54.060Z,1016.97
2018-01-12T11:45:15.064Z,1016.96
2018-01-12T11:45:54.048Z,1017.02
2018-01-12T11:46:54.039Z,1016.95
2018-01-12T11:47:54.031Z,1016.93
2018-01-12T11:48:54.024Z,1016.91
2018-01-12T11:49:54.021Z,1016.93
2018-01-12T11:51:15.021Z,1016.95
2018-01-12T11:51:54.008Z,1016.95
2018-01-12T11:52:54.001Z,1016.96
2018-01-12T11:53:54.007Z,1016.93
2018-01-12T11:54:53.988Z,1016.94
2018-01-12T11:55:53.984Z,1016.97
2018-01-12T11:57:14.982Z,1016.97
2018-01-12T11:57:53.971Z,1016.97
2018-01-12T11:58:53.963Z,1016.90
2018-01-12T11:59:53.972Z,1016.92
2018-01-12T12:00:53.951Z,1016.93
2018-01-12T12:01:53.984Z,1016.90
2018-01-12T12:03:14.946Z,1016.92
2018-01-12T12:03:53.933Z,1016.91
2018-01-12T12:04:53.926Z,1016.89
2018-01-12T12:05:53.918Z,1016.89